Time;durP1;ratioP1;P1;durP2;ratioP2;P2;SDS_P1;SDS_P2;PMS_P1;PMS_P2;Temp;Humidity;BMP_temperature;BMP_pressure;BME280_temperature;BME280_humidity;BME280_pressure;Samples;Min_cycle;Max_cycle;Signal;HPM_P1;HPM_P2
2023/10/28 00:00:43;;;;;;;10.50;9.40;;;;;;;13.58;100.00;97466.11;88356;283;137164;-69
2023/10/28 00:02:45;;;;;;;21.10;10.10;;;;;;;13.59;100.00;97463.91;88471;283;24017;-69
2023/10/28 00:04:47;;;;;;;12.50;9.80;;;;;;;13.61;100.00;97457.20;88280;283;138792;-67
2023/10/28 00:06:49;;;;;;;14.40;11.90;;;;;;;13.61;100.00;97457.48;88341;283;22583;-70
2023/10/28 00:08:50;;;;;;;14.30;12.70;;;;;;;13.65;100.00;97457.23;88329;283;137130;-68
2023/10/28 00:10:52;;;;;;;14.60;11.50;;;;;;;13.70;100.00;97449.65;88447;283;22533;-69
2023/10/28 00:12:54;;;;;;;13.20;11.20;;;;;;;13.74;100.00;97444.64;88213;283;138735;-68
2023/10/28 00:14:56;;;;;;;14.00;10.90;;;;;;;13.78;100.00;97446.10;88404;276;25070;-69
2023/10/28 00:16:57;;;;;;;10.90;7.70;;;;;;;13.81;100.00;97447.70;88254;283;137521;-68
2023/10/28 00:18:59;;;;;;;14.50;8.20;;;;;;;13.85;100.00;97441.88;88414;283;24018;-69
2023/10/28 00:21:02;;;;;;;10.50;5.40;;;;;;;13.92;100.00;97433.35;88244;283;138498;-68
2023/10/28 00:23:04;;;;;;;5.80;4.20;;;;;;;13.96;100.00;97423.84;88479;284;25341;-69
2023/10/28 00:25:07;;;;;;;6.20;4.20;;;;;;;13.99;100.00;97415.46;88307;283;136937;-70
2023/10/28 00:27:10;;;;;;;6.70;3.60;;;;;;;14.01;100.00;97422.40;88518;275;25242;-69
2023/10/28 00:29:12;;;;;;;11.50;3.70;;;;;;;14.01;100.00;97421.54;88258;285;136545;-68
2023/10/28 00:31:19;;;;;;;5.10;3.60;;;;;;;14.04;100.00;97417.14;88334;285;22571;-68
2023/10/28 00:33:21;;;;;;;4.50;3.20;;;;;;;14.08;100.00;97410.24;88268;277;136873;-68
2023/10/28 00:35:25;;;;;;;3.80;2.70;;;;;;;14.08;100.00;97402.14;88403;277;24234;-69
2023/10/28 00:37:26;;;;;;;4.70;3.10;;;;;;;14.10;100.00;97395.45;88269;283;138382;-69
2023/10/28 00:39:31;;;;;;;5.00;2.50;;;;;;;14.09;100.00;97386.07;88386;276;22479;-69
2023/10/28 00:41:33;;;;;;;7.10;2.60;;;;;;;14.12;100.00;97385.93;88095;277;137162;-68
2023/10/28 00:43:35;;;;;;;5.70;2.70;;;;;;;14.13;100.00;97374.19;88266;284;25171;-71
2023/10/28 00:45:38;;;;;;;5.30;2.40;;;;;;;14.15;100.00;97374.22;88213;276;139505;-70
2023/10/28 00:47:43;;;;;;;4.70;2.50;;;;;;;14.18;100.00;97367.76;88357;277;22879;-70
2023/10/28 00:49:45;;;;;;;5.20;3.20;;;;;;;14.18;100.00;97363.80;88316;281;137104;-70
2023/10/28 00:51:47;;;;;;;8.30;3.10;;;;;;;14.17;100.00;97365.30;88608;279;22898;-70
2023/10/28 00:53:50;;;;;;;8.30;2.10;;;;;;;14.16;100.00;97364.66;88266;279;136804;-69
2023/10/28 00:55:54;;;;;;;4.80;2.40;;;;;;;14.18;100.00;97360.05;88463;283;24037;-71
2023/10/28 00:57:57;;;;;;;3.10;2.30;;;;;;;14.20;100.00;97362.01;88282;283;137132;-73
2023/10/28 01:00:01;;;;;;;5.90;2.30;;;;;;;14.22;100.00;97362.79;88643;277;24052;-70
2023/10/28 01:02:03;;;;;;;10.10;2.50;;;;;;;14.24;100.00;97349.16;88778;283;25396;-71
2023/10/28 01:04:05;;;;;;;3.80;2.10;;;;;;;14.26;100.00;97339.16;88709;283;137511;-68
2023/10/28 01:06:09;;;;;;;8.60;3.70;;;;;;;14.29;100.00;97343.00;88993;283;22514;-69
2023/10/28 01:08:11;;;;;;;4.90;2.40;;;;;;;14.33;100.00;97345.10;88876;281;137353;-67
2023/10/28 01:10:25;;;;;;;2.20;2.00;;;;;;;14.35;100.00;97345.83;88602;283;25080;-67
2023/10/28 01:12:27;;;;;;;3.80;2.40;;;;;;;14.37;100.00;97339.52;88360;277;139682;-69
2023/10/28 01:14:28;;;;;;;3.70;2.20;;;;;;;14.37;100.00;97334.70;88520;279;22521;-72
2023/10/28 01:16:30;;;;;;;5.40;2.00;;;;;;;14.38;100.00;97324.94;88326;283;137124;-70
2023/10/28 01:18:32;;;;;;;2.70;1.80;;;;;;;14.40;100.00;97324.66;88215;277;22804;-70
2023/10/28 01:20:35;;;;;;;6.30;2.40;;;;;;;14.40;100.00;97333.01;88351;277;137342;-70
2023/10/28 01:22:39;;;;;;;4.60;2.30;;;;;;;14.40;100.00;97334.77;88416;277;22555;-69
2023/10/28 01:24:40;;;;;;;2.80;2.10;;;;;;;14.43;100.00;97335.71;88206;280;137012;-69
2023/10/28 01:26:42;;;;;;;3.10;1.90;;;;;;;14.44;100.00;97329.32;88317;284;22546;-70
2023/10/28 01:28:44;;;;;;;2.00;1.20;;;;;;;14.44;100.00;97324.22;88318;283;138365;-66
2023/10/28 01:30:48;;;;;;;4.70;2.00;;;;;;;14.43;100.00;97321.23;88465;275;24018;-70
2023/10/28 01:32:50;;;;;;;4.60;1.30;;;;;;;14.47;100.00;97322.09;88224;277;136976;-69
2023/10/28 01:34:53;;;;;;;4.10;1.20;;;;;;;14.51;100.00;97324.73;88311;280;24058;-69
2023/10/28 01:36:56;;;;;;;4.30;1.90;;;;;;;14.55;100.00;97320.48;88271;283;136861;-69
2023/10/28 01:38:58;;;;;;;3.70;1.70;;;;;;;14.56;100.00;97314.80;88441;284;24078;-69
2023/10/28 01:41:02;;;;;;;4.20;1.80;;;;;;;14.58;100.00;97313.89;88429;283;137755;-69
2023/10/28 01:43:05;;;;;;;3.20;1.40;;;;;;;14.62;100.00;97313.47;88291;279;22559;-68
2023/10/28 01:45:09;;;;;;;9.30;1.90;;;;;;;14.64;100.00;97303.20;88275;276;138528;-69
2023/10/28 01:47:11;;;;;;;2.20;1.40;;;;;;;14.66;100.00;97305.47;88401;282;25177;-69
2023/10/28 01:49:13;;;;;;;5.40;2.30;;;;;;;14.70;100.00;97307.36;88200;275;137306;-69
2023/10/28 01:51:15;;;;;;;3.80;1.30;;;;;;;14.72;100.00;97304.66;88304;283;25084;-69
2023/10/28 01:53:16;;;;;;;2.20;2.00;;;;;;;14.73;100.00;97304.95;88178;282;138304;-69
2023/10/28 01:55:18;;;;;;;2.60;1.20;;;;;;;14.75;100.00;97295.81;88330;280;25325;-70
2023/10/28 01:57:21;;;;;;;3.90;1.20;;;;;;;14.76;100.00;97289.36;88274;282;138288;-70
2023/10/28 01:59:25;;;;;;;1.20;1.00;;;;;;;14.77;100.00;97292.63;88238;277;22554;-69
2023/10/28 02:01:27;;;;;;;1.80;1.70;;;;;;;14.77;100.00;97288.59;88206;281;138894;-69
2023/10/28 02:03:30;;;;;;;3.30;1.40;;;;;;;14.78;100.00;97275.49;88225;286;22784;-70
2023/10/28 02:05:34;;;;;;;4.80;1.10;;;;;;;14.81;100.00;97272.13;88148;276;137058;-71
2023/10/28 02:07:37;;;;;;;2.10;1.20;;;;;;;14.84;100.00;97268.07;88252;276;22542;-69
2023/10/28 02:09:39;;;;;;;4.10;1.50;;;;;;;14.85;100.00;97269.55;88169;283;136927;-69
2023/10/28 02:11:43;;;;;;;2.10;0.90;;;;;;;14.86;100.00;97267.39;88292;283;22623;-70
2023/10/28 02:13:45;;;;;;;4.70;1.20;;;;;;;14.87;100.00;97265.13;88181;284;137015;-68
2023/10/28 02:15:48;;;;;;;3.90;2.00;;;;;;;14.86;100.00;97260.91;88441;278;26203;-71
2023/10/28 02:17:50;;;;;;;5.30;1.60;;;;;;;14.85;100.00;97258.83;88261;283;136890;-71
2023/10/28 02:19:52;;;;;;;4.10;2.20;;;;;;;14.87;100.00;97258.95;88361;283;25192;-80
2023/10/28 02:21:55;;;;;;;3.80;1.60;;;;;;;14.87;100.00;97256.92;88234;284;136849;-64
2023/10/28 02:24:13;;;;;;;8.30;1.50;;;;;;;14.80;100.00;97247.27;88198;283;137325;-67
2023/10/28 02:26:17;;;;;;;;;;;;;;;14.85;100.00;97248.53;88382;283;22526;-66
2023/10/28 02:28:19;;;;;;;5.80;2.20;;;;;;;14.83;100.00;97246.80;88321;285;124979;-61
2023/10/28 02:30:21;;;;;;;3.90;1.30;;;;;;;14.89;100.00;97241.81;88390;283;24310;-69
2023/10/28 02:32:23;;;;;;;4.30;1.20;;;;;;;14.94;100.00;97242.76;88288;284;137022;-64
2023/10/28 02:34:27;;;;;;;4.20;1.10;;;;;;;15.00;100.00;97234.19;88427;283;25027;-63
2023/10/28 02:36:29;;;;;;;3.50;2.30;;;;;;;15.02;100.00;97226.98;88275;275;137018;-69
2023/10/28 02:38:32;;;;;;;6.60;1.00;;;;;;;15.05;100.00;97215.45;88388;283;22558;-63
2023/10/28 02:40:33;;;;;;;3.60;1.10;;;;;;;15.06;100.00;97216.61;88192;280;137264;-68
2023/10/28 02:42:35;;;;;;;2.00;0.50;;;;;;;15.09;100.00;97209.55;88379;276;25309;-63
2023/10/28 02:44:37;;;;;;;1.50;0.50;;;;;;;15.10;100.00;97213.22;88314;283;137071;-69
2023/10/28 02:46:39;;;;;;;1.10;0.20;;;;;;;15.12;100.00;97210.17;88394;277;22552;-67
2023/10/28 02:48:43;;;;;;;4.00;0.20;;;;;;;15.19;100.00;97210.91;88334;277;137211;-68
2023/10/28 02:50:45;;;;;;;2.30;0.20;;;;;;;15.24;100.00;97222.25;88311;276;24068;-66
2023/10/28 02:52:47;;;;;;;0.70;0.20;;;;;;;15.31;100.00;97225.64;88490;276;137874;-83
2023/10/28 02:54:49;;;;;;;0.20;0.10;;;;;;;15.35;100.00;97234.40;88792;278;25108;-84
2023/10/28 02:56:51;;;;;;;1.80;0.10;;;;;;;15.39;100.00;97231.08;88920;278;136912;-82
2023/10/28 02:58:53;;;;;;;0.00;0.00;;;;;;;15.41;100.00;97236.25;88608;283;22521;-80
2023/10/28 03:00:57;;;;;;;3.30;0.00;;;;;;;15.41;100.00;97236.09;88419;278;137023;-79
2023/10/28 03:02:59;;;;;;;1.60;0.00;;;;;;;15.40;100.00;97244.91;88568;283;22780;-82
2023/10/28 03:05:05;;;;;;;0.30;0.00;;;;;;;15.36;100.00;97247.33;88390;279;138362;-79
2023/10/28 03:07:07;;;;;;;0.00;0.00;;;;;;;15.28;100.00;97226.00;88611;283;24034;-80
2023/10/28 03:09:09;;;;;;;0.30;0.00;;;;;;;15.19;100.00;97226.54;88287;283;415112;-83
2023/10/28 03:11:11;;;;;;;0.30;0.00;;;;;;;15.09;100.00;97234.64;88409;279;23763;-84
2023/10/28 03:13:13;;;;;;;0.80;0.00;;;;;;;15.02;100.00;97238.35;88466;279;137008;-86
2023/10/28 03:15:15;;;;;;;0.00;0.00;;;;;;;14.95;100.00;97236.10;88461;280;24373;-85
2023/10/28 03:17:17;;;;;;;0.00;0.00;;;;;;;14.90;100.00;97244.77;88317;280;137181;-79
2023/10/28 03:19:19;;;;;;;2.60;0.00;;;;;;;14.83;100.00;97247.55;88458;284;25196;-81
2023/10/28 03:21:21;;;;;;;0.50;0.10;;;;;;;14.75;100.00;97239.99;88519;283;137458;-83
2023/10/28 03:23:24;;;;;;;0.20;0.00;;;;;;;14.70;100.00;97235.40;88989;281;22531;-76
2023/10/28 03:25:27;;;;;;;0.10;0.00;;;;;;;14.65;100.00;97232.59;89112;283;137995;-82
2023/10/28 03:27:29;;;;;;;0.40;0.00;;;;;;;14.59;100.00;97224.25;88478;276;22797;-82
2023/10/28 03:29:31;;;;;;;0.00;0.00;;;;;;;14.55;100.00;97219.24;88262;283;137155;-80
2023/10/28 03:31:33;;;;;;;0.00;0.00;;;;;;;14.52;100.00;97214.04;88325;281;22782;-77
2023/10/28 03:33:34;;;;;;;0.60;0.00;;;;;;;14.47;100.00;97210.08;88478;276;136787;-81
2023/10/28 03:35:37;;;;;;;0.00;0.00;;;;;;;14.46;100.00;97203.98;88501;283;23858;-77
2023/10/28 03:37:38;;;;;;;0.00;0.00;;;;;;;14.43;100.00;97196.37;88459;283;136996;-83
2023/10/28 03:39:40;;;;;;;0.70;0.00;;;;;;;14.41;100.00;97195.80;88462;276;22552;-83
2023/10/28 03:41:42;;;;;;;0.00;0.00;;;;;;;14.38;100.00;97189.52;88306;285;137790;-81
2023/10/28 03:43:43;;;;;;;0.00;0.00;;;;;;;14.37;100.00;97186.96;88426;284;24204;-82
2023/10/28 03:45:45;;;;;;;0.20;0.00;;;;;;;14.35;100.00;97183.99;88349;277;137035;-81
2023/10/28 03:47:48;;;;;;;0.00;0.00;;;;;;;14.33;100.00;97184.66;88401;284;22517;-80
2023/10/28 03:49:50;;;;;;;1.60;0.00;;;;;;;14.30;100.00;97170.94;89091;278;136834;-76
2023/10/28 03:51:53;;;;;;;0.10;0.00;;;;;;;14.28;100.00;97175.56;89002;276;23359;-80
2023/10/28 03:53:55;;;;;;;0.30;0.00;;;;;;;14.27;100.00;97169.64;89293;283;137693;-74
2023/10/28 03:55:57;;;;;;;0.00;0.00;;;;;;;14.25;100.00;97162.02;89946;283;22563;-80
2023/10/28 03:57:59;;;;;;;0.00;0.00;;;;;;;14.19;100.00;97159.79;88699;275;136721;-77
2023/10/28 04:00:00;;;;;;;0.50;0.00;;;;;;;14.18;100.00;97165.59;89143;283;22536;-78
2023/10/28 04:02:13;;;;;;;2.30;0.00;;;;;;;14.17;100.00;97156.59;89651;283;25095;-81
2023/10/28 04:04:14;;;;;;;0.80;0.00;;;;;;;14.15;100.00;97155.93;88970;283;137179;-80
2023/10/28 04:06:16;;;;;;;0.50;0.40;;;;;;;14.13;100.00;97143.33;89018;275;23729;-79
2023/10/28 04:08:18;;;;;;;0.40;0.00;;;;;;;14.10;100.00;97143.18;88403;280;137188;-82
2023/10/28 04:10:20;;;;;;;0.20;0.00;;;;;;;14.09;100.00;97142.78;88326;280;25096;-82
2023/10/28 04:12:22;;;;;;;2.30;0.00;;;;;;;14.08;100.00;97133.38;88023;275;138482;-74
2023/10/28 04:14:24;;;;;;;0.70;0.00;;;;;;;14.05;100.00;97133.36;88049;275;25670;-73
2023/10/28 04:16:26;;;;;;;0.40;0.00;;;;;;;14.03;100.00;97123.59;87995;276;138073;-79
2023/10/28 04:18:27;;;;;;;0.40;0.00;;;;;;;14.10;100.00;97127.88;87918;276;22541;-80
2023/10/28 04:20:29;;;;;;;0.20;0.00;;;;;;;14.08;100.00;97118.86;87881;276;136939;-82
2023/10/28 04:22:31;;;;;;;0.20;0.00;;;;;;;14.07;100.00;97118.92;88133;277;22560;-73
2023/10/28 04:24:33;;;;;;;1.70;0.00;;;;;;;14.05;100.00;97111.19;88206;276;137427;-80
2023/10/28 04:26:36;;;;;;;0.00;0.00;;;;;;;14.04;100.00;97109.44;87931;276;23738;-74
2023/10/28 04:28:38;;;;;;;0.70;0.00;;;;;;;14.02;100.00;97109.19;87905;276;136576;-80
2023/10/28 04:30:40;;;;;;;0.00;0.00;;;;;;;14.01;100.00;97115.04;88068;275;22481;-78
2023/10/28 04:32:43;;;;;;;0.10;0.00;;;;;;;14.00;100.00;97100.22;87925;275;136855;-82
2023/10/28 04:34:46;;;;;;;0.50;0.00;;;;;;;13.99;100.00;97100.98;88145;276;24794;-85
2023/10/28 04:36:59;;;;;;;0.00;0.00;;;;;;;13.96;100.00;97097.23;87912;276;137023;-81
2023/10/28 04:39:02;;;;;;;2.20;0.00;;;;;;;13.91;100.00;97097.61;88150;277;23003;-75
2023/10/28 04:41:03;;;;;;;5.80;0.00;;;;;;;13.89;100.00;97089.50;88096;276;136941;-73
2023/10/28 04:43:05;;;;;;;0.00;0.00;;;;;;;13.84;100.00;97091.40;88150;276;25150;-83
2023/10/28 04:45:10;;;;;;;0.00;0.00;;;;;;;13.79;100.00;97073.96;88220;283;136992;-80
2023/10/28 04:47:12;;;;;;;0.70;0.00;;;;;;;13.73;100.00;97083.56;88647;283;22823;-82
2023/10/28 04:49:14;;;;;;;0.70;0.10;;;;;;;13.68;100.00;97074.70;88719;275;137169;-80
2023/10/28 04:51:16;;;;;;;0.30;0.00;;;;;;;13.66;100.00;97076.98;89095;280;24709;-78
2023/10/28 04:53:18;;;;;;;1.90;0.00;;;;;;;13.65;100.00;97072.48;88107;275;137038;-80
2023/10/28 04:55:21;;;;;;;1.00;0.00;;;;;;;13.61;100.00;97071.73;88130;275;23036;-72
2023/10/28 04:57:23;;;;;;;1.50;0.00;;;;;;;13.57;100.00;97078.42;88052;276;136825;-75
2023/10/28 04:59:25;;;;;;;0.00;0.00;;;;;;;13.55;100.00;97079.52;88178;276;24675;-81
2023/10/28 05:01:27;;;;;;;0.10;0.00;;;;;;;13.50;100.00;97073.70;88373;276;136922;-78
2023/10/28 05:03:29;;;;;;;0.00;0.00;;;;;;;13.47;100.00;97078.76;88019;277;22605;-78
2023/10/28 05:05:30;;;;;;;0.70;0.00;;;;;;;13.42;100.00;97078.44;87953;275;138298;-84
2023/10/28 05:07:33;;;;;;;1.80;0.50;;;;;;;13.39;100.00;97068.05;88141;276;22534;-80
2023/10/28 05:09:36;;;;;;;2.40;0.80;;;;;;;13.35;100.00;97066.67;87910;276;137020;-77
2023/10/28 05:11:38;;;;;;;1.10;0.00;;;;;;;13.29;100.00;97072.82;88167;275;22531;-75
2023/10/28 05:13:39;;;;;;;2.30;0.00;;;;;;;13.20;100.00;97077.34;87998;274;137860;-82
2023/10/28 05:15:41;;;;;;;1.70;0.00;;;;;;;13.11;100.00;97068.56;88163;275;25090;-86
2023/10/28 05:17:43;;;;;;;1.70;0.00;;;;;;;13.01;100.00;97067.06;88065;275;138299;-78
2023/10/28 05:19:45;;;;;;;1.10;0.00;;;;;;;12.90;100.00;97075.20;88139;275;22479;-75
2023/10/28 05:21:47;;;;;;;1.50;0.00;;;;;;;12.79;100.00;97073.81;87968;275;136931;-75
2023/10/28 05:23:49;;;;;;;0.00;0.00;;;;;;;12.65;100.00;97071.59;88121;277;22541;-72
2023/10/28 05:25:51;;;;;;;2.10;0.50;;;;;;;12.48;100.00;97055.23;88120;275;137023;-80
2023/10/28 05:27:53;;;;;;;1.80;0.00;;;;;;;12.31;100.00;97072.68;88393;280;25802;-68
2023/10/28 05:29:55;;;;;;;4.10;0.00;;;;;;;12.18;100.00;97075.99;88273;276;136441;-80
2023/10/28 05:31:57;;;;;;;0.40;0.00;;;;;;;12.04;100.00;97075.01;88306;275;22848;-79
2023/10/28 05:33:59;;;;;;;0.80;0.00;;;;;;;11.92;100.00;97080.48;88071;277;136832;-82
2023/10/28 05:36:02;;;;;;;0.10;0.00;;;;;;;11.80;100.00;97082.50;88238;276;25135;-80
2023/10/28 05:38:04;;;;;;;3.60;0.00;;;;;;;11.73;100.00;97088.14;88367;277;22521;-82
2023/10/28 05:40:10;;;;;;;0.20;0.00;;;;;;;11.67;100.00;97067.52;88351;280;136798;-85
2023/10/28 05:42:12;;;;;;;0.30;0.00;;;;;;;11.61;100.00;97083.03;88469;283;22939;-85
2023/10/28 05:44:14;;;;;;;0.20;0.00;;;;;;;11.53;100.00;97078.32;88330;276;137087;-82
2023/10/28 05:46:19;;;;;;;0.20;0.00;;;;;;;11.45;100.00;97095.16;88760;283;25102;-85
2023/10/28 05:48:21;;;;;;;0.00;0.00;;;;;;;11.39;100.00;97088.24;88394;277;136769;-78
2023/10/28 05:50:22;;;;;;;0.00;0.00;;;;;;;11.33;100.00;97101.88;88446;281;22560;-88
2023/10/28 05:52:24;;;;;;;0.10;0.00;;;;;;;11.25;100.00;97107.97;88494;276;137137;-81
2023/10/28 05:54:26;;;;;;;0.00;0.00;;;;;;;11.17;100.00;97107.41;89467;275;22527;-82
2023/10/28 05:56:28;;;;;;;1.20;0.40;;;;;;;11.10;100.00;97122.25;90519;279;136743;-67
2023/10/28 05:58:30;;;;;;;2.50;0.10;;;;;;;11.04;100.00;97131.05;90754;275;22725;-68
2023/10/28 06:00:33;;;;;;;0.90;0.00;;;;;;;10.98;100.00;97135.45;90971;279;136637;-71
2023/10/28 06:02:34;;;;;;;4.70;0.10;;;;;;;10.94;100.00;97145.67;91028;276;22547;-70
2023/10/28 06:04:37;;;;;;;2.00;0.00;;;;;;;10.89;100.00;97143.71;88468;283;136997;-71
2023/10/28 06:06:39;;;;;;;0.90;0.00;;;;;;;10.85;100.00;97157.20;88366;279;22546;-75
2023/10/28 06:08:41;;;;;;;0.80;0.00;;;;;;;10.81;100.00;97162.00;88217;276;136739;-72
2023/10/28 06:10:45;;;;;;;0.00;0.00;;;;;;;10.78;100.00;97174.04;88463;275;24277;-68
2023/10/28 06:12:47;;;;;;;1.70;0.00;;;;;;;10.74;100.00;97174.40;88268;275;139397;-68
2023/10/28 06:14:50;;;;;;;0.00;0.00;;;;;;;10.63;100.00;97175.00;88126;276;22540;-69
2023/10/28 06:16:52;;;;;;;0.80;0.00;;;;;;;10.65;100.00;97192.53;88151;276;137207;-72
2023/10/28 06:18:54;;;;;;;0.10;0.00;;;;;;;10.60;100.00;97196.36;88276;282;22839;-64
2023/10/28 06:20:56;;;;;;;0.40;0.10;;;;;;;10.57;100.00;97205.10;88223;279;137978;-66
2023/10/28 06:22:58;;;;;;;0.20;0.00;;;;;;;10.54;100.00;97214.14;88264;276;25253;-75
2023/10/28 06:25:00;;;;;;;0.10;0.00;;;;;;;10.51;100.00;97213.45;88100;280;136721;-69
2023/10/28 06:27:02;;;;;;;0.20;0.00;;;;;;;10.50;100.00;97221.75;88062;277;22522;-71
2023/10/28 06:29:04;;;;;;;0.50;0.10;;;;;;;10.45;100.00;97226.27;88121;276;138192;-69
2023/10/28 06:31:06;;;;;;;0.10;0.10;;;;;;;10.40;100.00;97239.46;88116;276;22964;-70
2023/10/28 06:33:07;;;;;;;1.10;0.10;;;;;;;10.37;100.00;97240.31;88084;275;136892;-69
2023/10/28 06:35:10;;;;;;;2.00;0.10;;;;;;;10.36;100.00;97249.73;88221;275;22610;-69
2023/10/28 06:37:12;;;;;;;1.10;0.00;;;;;;;10.34;100.00;97259.48;88287;278;137129;-68
2023/10/28 06:39:16;;;;;;;1.00;0.60;;;;;;;10.29;100.00;97250.76;88291;279;23685;-71
2023/10/28 06:41:18;;;;;;;0.60;0.00;;;;;;;10.25;100.00;97271.66;88235;276;137187;-68
2023/10/28 06:43:23;;;;;;;1.00;0.10;;;;;;;10.21;100.00;97267.71;88269;276;25328;-72
2023/10/28 06:45:24;;;;;;;1.20;0.10;;;;;;;10.14;100.00;97285.61;88112;275;136977;-71
2023/10/28 06:47:26;;;;;;;0.50;0.00;;;;;;;10.08;100.00;97287.67;88289;275;22534;-70
2023/10/28 06:49:28;;;;;;;0.60;0.10;;;;;;;10.02;100.00;97300.15;88181;275;136857;-70
2023/10/28 06:51:30;;;;;;;0.40;0.10;;;;;;;9.98;100.00;97310.50;88181;275;25245;-71
2023/10/28 06:53:32;;;;;;;0.10;0.10;;;;;;;9.95;100.00;97321.36;88115;276;137462;-72
2023/10/28 06:55:34;;;;;;;0.40;0.10;;;;;;;9.87;100.00;97314.48;88220;276;23501;-71
2023/10/28 06:57:35;;;;;;;0.40;0.10;;;;;;;9.89;100.00;97321.73;88054;276;137829;-70
2023/10/28 06:59:37;;;;;;;0.10;0.00;;;;;;;9.87;100.00;97337.58;88864;275;24131;-73
2023/10/28 07:01:39;;;;;;;10.10;0.90;;;;;;;9.78;100.00;97336.09;88633;275;136798;-72
2023/10/28 07:03:41;;;;;;;0.30;0.10;;;;;;;9.82;100.00;97364.31;88268;283;25308;-71
2023/10/28 07:05:45;;;;;;;0.10;0.00;;;;;;;9.80;100.00;97356.75;88162;277;136880;-67
2023/10/28 07:07:48;;;;;;;1.20;0.10;;;;;;;9.79;100.00;97351.05;88340;275;22686;-71
2023/10/28 07:09:50;;;;;;;1.10;0.10;;;;;;;9.79;100.00;97384.25;88168;276;137167;-70
2023/10/28 07:12:32;;;;;;;0.20;0.10;;;;;;;9.69;100.00;97404.60;86669;305;603688;-73
2023/10/28 07:14:34;;;;;;;0.10;0.10;;;;;;;9.69;100.00;97389.50;87605;292;22564;-73
2023/10/28 07:16:36;;;;;;;0.20;0.10;;;;;;;9.74;100.00;97406.02;87678;292;136152;-70
2023/10/28 07:18:38;;;;;;;0.10;0.10;;;;;;;9.76;100.00;97412.80;87841;286;24965;-72
2023/10/28 07:20:40;;;;;;;0.70;0.10;;;;;;;9.78;100.00;97406.11;87646;285;136097;-71
2023/10/28 07:22:42;;;;;;;0.10;0.10;;;;;;;9.81;100.00;97433.20;87690;289;24071;-71
2023/10/28 07:24:43;;;;;;;0.10;0.10;;;;;;;9.84;100.00;97438.56;88490;289;137279;-70
2023/10/28 07:26:45;;;;;;;1.30;0.10;;;;;;;9.88;100.00;97430.06;87516;286;622372;-72
2023/10/28 07:28:47;;;;;;;1.30;0.10;;;;;;;9.91;100.00;97447.54;87741;283;136715;-71
2023/10/28 07:30:53;;;;;;;0.40;0.10;;;;;;;9.94;100.00;97462.15;88012;284;25245;-71
2023/10/28 07:32:56;;;;;;;0.70;0.10;;;;;;;9.97;100.00;97465.95;88104;283;136441;-72
2023/10/28 07:34:58;;;;;;;1.40;0.10;;;;;;;9.99;100.00;97476.98;87849;284;25093;-72
2023/10/28 07:37:00;;;;;;;0.20;0.10;;;;;;;10.02;100.00;97486.38;87711;285;136378;-72
2023/10/28 07:39:03;;;;;;;0.90;0.20;;;;;;;10.07;100.00;97487.69;88764;285;22530;-71
2023/10/28 07:41:06;;;;;;;0.50;0.10;;;;;;;10.12;100.00;97486.18;88317;281;137050;-73
2023/10/28 07:43:12;;;;;;;0.20;0.00;;;;;;;10.16;100.00;97489.71;87837;282;22618;-71
2023/10/28 07:45:14;;;;;;;0.70;0.10;;;;;;;10.22;100.00;97495.35;88991;286;136654;-72
2023/10/28 07:47:15;;;;;;;0.10;0.10;;;;;;;10.28;100.00;97505.63;87884;282;22477;-73
2023/10/28 07:49:18;;;;;;;0.00;0.00;;;;;;;10.34;100.00;97499.08;88107;281;137816;-69
2023/10/28 07:51:20;;;;;;;0.20;0.10;;;;;;;10.40;100.00;97510.20;87849;286;23685;-70
2023/10/28 07:53:22;;;;;;;0.10;0.10;;;;;;;10.47;100.00;97492.98;87855;288;136380;-69
2023/10/28 07:55:24;;;;;;;0.50;0.10;;;;;;;10.54;100.00;97528.19;87818;281;24034;-72
2023/10/28 07:57:26;;;;;;;0.10;0.10;;;;;;;10.61;100.00;97529.35;87829;281;137905;-73
2023/10/28 07:59:28;;;;;;;0.10;0.10;;;;;;;10.68;100.00;97541.97;87767;281;22543;-72
2023/10/28 08:01:30;;;;;;;0.20;0.10;;;;;;;10.75;100.00;97547.55;88563;283;136647;-71
2023/10/28 08:03:33;;;;;;;0.30;0.10;;;;;;;10.78;100.00;97535.11;87890;280;25176;-71
2023/10/28 08:05:35;;;;;;;1.60;0.10;;;;;;;10.81;100.00;97529.36;87816;287;136640;-76
2023/10/28 08:07:37;;;;;;;0.10;0.00;;;;;;;10.84;100.00;97569.98;87963;284;22557;-74
2023/10/28 08:09:39;;;;;;;0.10;0.10;;;;;;;10.85;100.00;97576.16;87748;280;136803;-75
2023/10/28 08:11:41;;;;;;;0.60;0.40;;;;;;;10.85;100.00;97589.27;87842;289;22868;-70
2023/10/28 08:13:43;;;;;;;0.50;0.10;;;;;;;10.84;100.00;97597.48;87770;288;136503;-72
2023/10/28 08:15:45;;;;;;;1.30;0.10;;;;;;;10.82;100.00;97583.23;87786;289;24081;-72
2023/10/28 08:17:47;;;;;;;0.60;0.10;;;;;;;10.76;100.00;97603.66;87778;281;136663;-73
2023/10/28 08:19:49;;;;;;;0.20;0.10;;;;;;;10.72;100.00;97630.17;87835;286;22555;-76
2023/10/28 08:21:52;;;;;;;0.50;0.20;;;;;;;10.70;100.00;97631.00;87866;289;136153;-71
2023/10/28 08:23:54;;;;;;;0.20;0.10;;;;;;;10.68;100.00;97648.36;87925;285;25555;-69
2023/10/28 08:25:57;;;;;;;0.30;0.20;;;;;;;10.63;100.00;97651.14;87892;289;136541;-72
2023/10/28 08:27:58;;;;;;;0.10;0.10;;;;;;;10.58;100.00;97672.42;88060;283;22551;-75
2023/10/28 08:30:01;;;;;;;0.20;0.10;;;;;;;10.52;100.00;97683.13;88210;289;137868;-74
2023/10/28 08:32:04;;;;;;;0.20;0.10;;;;;;;10.48;100.00;97666.04;87864;281;137320;-69
2023/10/28 08:34:06;;;;;;;0.60;0.10;;;;;;;10.47;100.00;97678.82;88100;281;22617;-70
2023/10/28 08:36:12;;;;;;;0.10;0.10;;;;;;;10.44;100.00;97690.14;87848;286;138857;-71
2023/10/28 08:38:17;;;;;;;0.70;0.30;;;;;;;10.45;100.00;97709.48;87898;281;22583;-68
2023/10/28 08:40:19;;;;;;;0.20;0.20;;;;;;;10.48;100.00;97711.05;87846;281;136818;-66
2023/10/28 08:42:23;;;;;;;0.50;0.20;;;;;;;10.48;100.00;97718.56;87853;289;23721;-76
2023/10/28 08:44:28;;;;;;;0.10;0.10;;;;;;;10.48;100.00;97737.27;87791;282;136685;-71
2023/10/28 08:46:31;;;;;;;0.70;0.20;;;;;;;10.45;100.00;97748.95;89053;281;26051;-71
2023/10/28 08:48:37;;;;;;;0.10;0.10;;;;;;;10.39;100.00;97744.66;88015;287;136560;-73
2023/10/28 08:50:43;;;;;;;0.10;0.10;;;;;;;10.34;100.00;97760.45;87905;286;22543;-71
2023/10/28 08:52:47;;;;;;;0.30;0.20;;;;;;;10.30;100.00;97771.62;88070;280;136865;-74
2023/10/28 08:54:49;;;;;;;0.30;0.20;;;;;;;10.23;100.00;97775.36;88192;279;25213;-71
2023/10/28 08:56:56;;;;;;;0.20;0.20;;;;;;;10.21;100.00;97768.54;88064;279;137158;-70
2023/10/28 08:58:57;;;;;;;2.30;0.20;;;;;;;10.19;100.00;97773.02;89997;287;22551;-71
2023/10/28 09:01:01;;;;;;;0.20;0.20;;;;;;;10.22;100.00;97779.66;87951;285;138202;-69
2023/10/28 09:03:04;;;;;;;0.20;0.20;;;;;;;10.23;100.00;97771.27;88156;287;22521;-70
2023/10/28 09:05:06;;;;;;;0.10;0.10;;;;;;;10.19;100.00;97775.59;87953;279;136797;-68
2023/10/28 09:07:08;;;;;;;1.00;0.40;;;;;;;10.31;100.00;97797.89;88212;280;25180;-69
2023/10/28 09:09:12;;;;;;;0.40;0.20;;;;;;;10.36;100.00;97811.80;87969;284;136697;-70
2023/10/28 09:11:14;;;;;;;0.20;0.20;;;;;;;10.41;100.00;97799.23;88850;279;25148;-68
2023/10/28 09:13:16;;;;;;;0.80;0.70;;;;;;;10.47;100.00;97813.74;87986;280;136903;-69
2023/10/28 09:15:20;;;;;;;0.40;0.20;;;;;;;10.52;100.00;97816.67;88151;279;22547;-67
2023/10/28 09:17:22;;;;;;;0.70;0.30;;;;;;;10.59;100.00;97839.81;88114;279;136761;-69
2023/10/28 09:19:24;;;;;;;3.40;0.30;;;;;;;10.67;100.00;97835.37;88366;281;22543;-69
2023/10/28 09:21:25;;;;;;;0.50;0.40;;;;;;;10.72;100.00;97850.40;87992;279;136686;-67
2023/10/28 09:23:30;;;;;;;0.40;0.20;;;;;;;10.77;100.00;97851.89;88099;279;25200;-69
2023/10/28 09:25:34;;;;;;;0.10;0.10;;;;;;;10.82;100.00;97857.86;88415;278;136654;-77
2023/10/28 09:27:37;;;;;;;0.20;0.20;;;;;;;10.87;100.00;97873.90;88116;278;22606;-76
2023/10/28 09:29:41;;;;;;;1.20;0.20;;;;;;;10.91;100.00;97871.32;88227;279;138019;-71
2023/10/28 09:31:42;;;;;;;0.20;0.10;;;;;;;10.95;100.00;97874.56;88265;287;24071;-71
2023/10/28 09:33:44;;;;;;;0.20;0.20;;;;;;;10.99;100.00;97873.76;87966;286;137066;-70